Manzanita, California
Current Conditions -  °F | °C
As of 12:53 PM on Saturday 25 Oct 2014 (Local Time) from KOVE Reporting Station
Overcast Overcast  
Wind Chill: 65°   Ceiling: 4500
Heat Index: 65°   Visibility: 10mi
Dew Point: 53°   Wind: 20mph
Humidity: 65%   Direction: 150°SSE
Pressure: 30.02"   Gusts: 30mph
Location:  39.3475°N, 121.759°W
Report Text: KOVE 251953Z AUTO 15017G26KT 10SM BKN045 OVC055 18/12 A3002 RMK AO2 PK WND 16030/1904 SLP168 T01830117
Loading
Personal Weather Stations






























Interactive Weather Map
Tropical Storm Tracking
New forecast layout! Learn more

10-Day Weather Forecast

Advertisements
Track Severe Weather on mobile